Husuiyu0018 — 0018 — position and weather

sailwx.info

Track history (hours):
 
Tides and Currents Weather Stations Pressure Air Temp Water Temp Dewpoint Dewpoint Depression Visibility Wind Speed Wind Dir Waves Ship Positions

Husuiyu0018

Last reported at 2014-Jul-15 02:22 UTC. Time now 2014-Jul-23 21:47 UTC.
Position N 31°58' E 120°03'.
Warning: this ship's position is 8 days out of date.

Length 30 m.

Type: Fishing. MMSI: 412212538.

Date/timePositionNaut miles runAvg speedWind from/ knotsBaromVisibWave heightAir tempDewpointWater temp
2014-Jul-15 02:22N 31°58' E 120°03'10 5.5
2014-Jul-15 00:33N 31°57' E 120°14'6 5.8
2014-Jul-14 23:32N 31°60' E 120°20'6 6.5
2014-Jul-14 22:33N 32°02' E 120°27'7 7.3
2014-Jul-14 21:33N 32°01' E 120°36'54 8.3
2014-Jul-14 15:04N 31°29' E 121°27'7821.4
2014-Jul-14 11:24N 31°59' E 120°02'85549.1
2014-Jul-14 11:15N 31°21' E 121°31'0 0.0
2014-Jul-14 10:33N 31°21' E 121°31'80302.3
2014-Jul-14 10:17N 31°57' E 120°08'4 5.6
2014-Jul-14 09:33N 31°57' E 120°12'76722.8
2014-Jul-14 09:27N 31°21' E 121°31'7278.0
2014-Jul-14 08:31N 31°59' E 120°19'72990.5
2014-Jul-14 08:27N 31°21' E 121°31'7077.9
2014-Jul-14 07:33N 32°01' E 120°24'7016696.8
2014-Jul-14 07:33N 31°21' E 121°31'6767.2
2014-Jul-14 06:33N 32°02' E 120°30'6712058.3
2014-Jul-14 06:33N 31°21' E 121°31'0 0.0
2014-Jul-14 05:33N 31°21' E 121°31'6416567.6
2014-Jul-14 05:33N 32°02' E 120°33'2 1.7
2014-Jul-14 04:32N 32°02' E 120°35'64225.0
2014-Jul-14 04:15N 31°21' E 121°31'0 0.0
2014-Jul-14 02:33N 31°21' E 121°31'0 0.0
2014-Jul-14 01:33N 31°21' E 121°31'0 0.0
2014-Jul-14 00:32N 31°21' E 121°31'0 0.0
2014-Jul-13 23:32N 31°21' E 121°31'0 0.0
2014-Jul-13 22:32N 31°21' E 121°31'0 0.0
2014-Jul-13 21:32N 31°21' E 121°31'0 0.0
2014-Jul-13 20:14N 31°21' E 121°31'0 0.0
2014-Jul-13 19:32N 31°21' E 121°31'0 0.0
2014-Jul-13 18:26N 31°21' E 121°31'0 0.0
2014-Jul-13 17:32N 31°21' E 121°31'0 0.0
2014-Jul-13 14:32N 31°21' E 121°31'0 0.0
2014-Jul-13 13:14N 31°21' E 121°31'0 0.0
2014-Jul-13 12:26N 31°21' E 121°31'0 0.0
2014-Jul-13 11:32N 31°21' E 121°31'0 0.0
2014-Jul-13 10:25N 31°21' E 121°31'0 0.0
2014-Jul-13 09:31N 31°21' E 121°31'0 0.0
2014-Jul-13 06:31N 31°21' E 121°31'0 0.0
2014-Jul-13 05:25N 31°21' E 121°31'0 0.0
2014-Jul-13 04:25N 31°21' E 121°31'0 0.0
2014-Jul-13 03:19N 31°21' E 121°31'63267.8
2014-Jul-13 03:05N 32°02' E 120°35'63112.3
2014-Jul-13 02:31N 31°21' E 121°31'0 0.0
2014-Jul-13 01:07N 31°21' E 121°31'0 0.0
2014-Jul-11 10:30N 31°21' E 121°31'3 3.3
2014-Jul-11 09:33N 31°24' E 121°31'11 9.1
2014-Jul-11 08:19N 31°31' E 121°21'47 7.0
2014-Jul-11 01:33N 31°60' E 120°36'9 9.1
2014-Jul-11 00:32N 32°01' E 120°26'9 9.1
2014-Jul-10 23:33N 31°57' E 120°17'20 8.6
2014-Jul-10 21:13N 32°05' E 119°55'  
Track history (hours):
 
Tides and Currents Weather Stations Pressure Air Temp Water Temp Dewpoint Dewpoint Depression Visibility Wind Speed Wind Dir Waves Ship Positions

Husuiyu0018

Last reported at 2014-Jul-15 02:22 UTC. Time now 2014-Jul-23 21:47 UTC.
Position N 31°58' E 120°03'.
Warning: this ship's position is 8 days out of date.

Length 30 m.

Type: Fishing. MMSI: 412212538.

Date/timePositionNaut miles runAvg speedWind from/ knotsBaromVisibWave heightAir tempDewpointWater temp
2014-Jul-15 02:22N 31°58' E 120°03'10 5.5
2014-Jul-15 00:33N 31°57' E 120°14'6 5.8
2014-Jul-14 23:32N 31°60' E 120°20'6 6.5
2014-Jul-14 22:33N 32°02' E 120°27'7 7.3
2014-Jul-14 21:33N 32°01' E 120°36'54 8.3
2014-Jul-14 15:04N 31°29' E 121°27'7821.4
2014-Jul-14 11:24N 31°59' E 120°02'85549.1
2014-Jul-14 11:15N 31°21' E 121°31'0 0.0
2014-Jul-14 10:33N 31°21' E 121°31'80302.3
2014-Jul-14 10:17N 31°57' E 120°08'4 5.6
2014-Jul-14 09:33N 31°57' E 120°12'76722.8
2014-Jul-14 09:27N 31°21' E 121°31'7278.0
2014-Jul-14 08:31N 31°59' E 120°19'72990.5
2014-Jul-14 08:27N 31°21' E 121°31'7077.9
2014-Jul-14 07:33N 32°01' E 120°24'7016696.8
2014-Jul-14 07:33N 31°21' E 121°31'6767.2
2014-Jul-14 06:33N 32°02' E 120°30'6712058.3
2014-Jul-14 06:33N 31°21' E 121°31'0 0.0
2014-Jul-14 05:33N 31°21' E 121°31'6416567.6
2014-Jul-14 05:33N 32°02' E 120°33'2 1.7
2014-Jul-14 04:32N 32°02' E 120°35'64225.0
2014-Jul-14 04:15N 31°21' E 121°31'0 0.0
2014-Jul-14 02:33N 31°21' E 121°31'0 0.0
2014-Jul-14 01:33N 31°21' E 121°31'0 0.0
2014-Jul-14 00:32N 31°21' E 121°31'0 0.0
2014-Jul-13 23:32N 31°21' E 121°31'0 0.0
2014-Jul-13 22:32N 31°21' E 121°31'0 0.0
2014-Jul-13 21:32N 31°21' E 121°31'0 0.0
2014-Jul-13 20:14N 31°21' E 121°31'0 0.0
2014-Jul-13 19:32N 31°21' E 121°31'0 0.0
2014-Jul-13 18:26N 31°21' E 121°31'0 0.0
2014-Jul-13 17:32N 31°21' E 121°31'0 0.0
2014-Jul-13 14:32N 31°21' E 121°31'0 0.0
2014-Jul-13 13:14N 31°21' E 121°31'0 0.0
2014-Jul-13 12:26N 31°21' E 121°31'0 0.0
2014-Jul-13 11:32N 31°21' E 121°31'0 0.0
2014-Jul-13 10:25N 31°21' E 121°31'0 0.0
2014-Jul-13 09:31N 31°21' E 121°31'0 0.0
2014-Jul-13 06:31N 31°21' E 121°31'0 0.0
2014-Jul-13 05:25N 31°21' E 121°31'0 0.0
2014-Jul-13 04:25N 31°21' E 121°31'0 0.0
2014-Jul-13 03:19N 31°21' E 121°31'63267.8
2014-Jul-13 03:05N 32°02' E 120°35'63112.3
2014-Jul-13 02:31N 31°21' E 121°31'0 0.0
2014-Jul-13 01:07N 31°21' E 121°31'0 0.0
2014-Jul-11 10:30N 31°21' E 121°31'3 3.3
2014-Jul-11 09:33N 31°24' E 121°31'11 9.1
2014-Jul-11 08:19N 31°31' E 121°21'47 7.0
2014-Jul-11 01:33N 31°60' E 120°36'9 9.1
2014-Jul-11 00:32N 32°01' E 120°26'9 9.1
2014-Jul-10 23:33N 31°57' E 120°17'20 8.6
2014-Jul-10 21:13N 32°05' E 119°55'  

Dump ship's entire track history